Terminal Aerodrome Forecast
Issued by NWS Melbourne, FL

Home | Current Version | Previous Version | Text Only | Print | Product List | Glossary On
Versions: 1 2 3 4 5 6 7 8 9 10 11 12 13
000
FTUS42 KMLB 220300 AAA
TAFDAB
TAF AMD
KDAB 220339Z 2204/2224 VRB03KT 3SM -RA BR SCT035 OVC100
     FM220600 VRB03KT 2SM -RA BR SCT010 BKN015 OVC030
     FM221600 20007KT P6SM VCSH SCT030 BKN050 BKN100=

USA.gov is the U.S. government's official web portal to all federal, state and local government web resources and services.